• Join FlightAware (Why Join?)
  • Login
  • US Flag 
09:01PM EST


 

Airport Tracker/Info


-or-


 

Live Flight TrackerFlight Track Log ✈ RPA3436 ✈ 26-Jun-2013 ✈ KDCA - KALB

Flight Track Log - Related Links

Times and Time Zones

All times are in EDT time to prevent confusion due to time zone crossing. See the RPA3436 flight status page for this flight to view local times or setup timezone preferences in your user account.

Time Position Orientation Groundspeed Altitude Reporting Facility
EDT Latitude Longitude Course Direction KTS MPH feet Rate Location/Type
11:35AM 38.8167 -77.0333 83° East 157 181 1,500  Level Potomac TRACON
11:36AM 38.7500 -77.0333 180° South 245 282 2,800 2,040 Climbing Potomac TRACON
11:37AM 39.0099 -76.5802 57° Northeast  Level FlightAware Approximate
11:37AM 38.7000 -76.9667 134° Southeast 292 336 5,600  Level Potomac TRACON
11:38AM 39.0689 -76.4282 61° Northeast  Level FlightAware Approximate
11:38AM 38.7667 -76.9167 30° Northeast 293 337 8,000  Level Potomac TRACON
11:39AM 39.1167 -76.2737 90° East  Level FlightAware Approximate
11:39AM 38.8461 -76.8631 28° Northeast 316 364 10,500  Level Washington Center
11:40AM 39.1596 -76.1209 83° East  Level FlightAware Approximate
11:40AM 38.9014 -76.7600 55° Northeast 322 371 11,100  Level Washington Center
11:41AM 38.9567 -76.6353 60° Northeast 353 406 12,800 1,680 Climbing Washington Center
11:42AM 39.0142 -76.5133 59° Northeast 385 443 14,500 1,620 Climbing Washington Center
11:43AM 39.0753 -76.3858 58° Northeast 398 458 16,100 1,560 Climbing Washington Center
11:44AM 39.1344 -76.2553 60° Northeast 414 476 17,700 1,320 Climbing Washington Center
11:45AM 39.1622 -76.1056 76° East 422 486 18,800 1,080 Climbing Washington Center
11:46AM 39.1794 -75.9503 82° East 422 486 19,900 960 Climbing Washington Center
11:47AM 39.2467 -75.8139 57° Northeast 427 491 20,800 900 Climbing Washington Center
11:48AM 39.3258 -75.7150 44° Northeast 435 501 21,800 900 Climbing Washington Center
11:49AM 39.4239 -75.5861 45° Northeast 448 516 22,600 720 Climbing Washington Center
11:50AM 39.5050 -75.4786 46° Northeast 455 524 23,300 720 Climbing Washington Center
11:51AM 39.6069 -75.3436 46° Northeast 465 535 24,100 660 Climbing Washington Center
11:52AM 39.6881 -75.2303 47° Northeast 465 535 24,700 600 Climbing Washington Center
11:53AM 39.7875 -75.0892 47° Northeast 471 542 25,400 840 Climbing Washington Center
11:55AM 39.9489 -74.8622 47° Northeast 471 542 27,300 1,200 Climbing New York Center
11:56AM 40.0539 -74.7167 47° Northeast 476 548 29,000 840 Climbing New York Center
11:57AM 40.1428 -74.6131 42° Northeast 470 541 29,000  Level New York Center
11:58AM 40.2486 -74.4939 41° Northeast 483 556 29,000 -240 Level New York Center
11:59AM 40.3653 -74.3611 41° Northeast 491 565 28,600 -720 Descending New York Center
12:00PM 40.4539 -74.2567 42° Northeast 485 558 27,600 -1,140 Descending New York Center
12:02PM 40.6489 -74.0319 41° Northeast 494 568 25,400 -1,200 Descending Boston Center
12:03PM 40.7422 -73.9219 42° Northeast 468 539 24,300 -720 Descending Boston Center
12:04PM 40.8394 -73.8092 41° Northeast 457 526 24,000 -300 Descending Boston Center
12:05PM 40.9386 -73.6983 40° Northeast 457 526 23,800 -540 Descending Boston Center
12:06PM 41.0353 -73.6289 28° Northeast 452 520 23,000 -1,200 Descending Boston Center
12:07PM 41.1506 -73.5592 24° Northeast 447 514 21,400 -2,040 Descending Boston Center
12:08PM 41.2758 -73.5531 North 411 473 19,000 -1,200 Descending Boston Center
12:09PM 41.3758 -73.5522 360° North 404 465 19,000 -600 Level Boston Center
12:10PM 41.5008 -73.5461 North 404 465 17,900 -1,260 Descending Boston Center
12:11PM 41.5989 -73.5422 North 404 465 16,500 -1,500 Descending Boston Center
12:12PM 41.7156 -73.5386 North 389 448 15,000 -900 Descending Boston Center
12:13PM 41.8219 -73.5350 North 378 435 14,700 -900 Descending Boston Center
12:14PM 41.9242 -73.5311 North 378 435 13,200 -1,380 Descending Boston Center
12:15PM 41.9931 -73.5294 North 364 419 12,000 -1,140 Descending Boston Center
12:16PM 42.1222 -73.5344 358° North 358 412 11,000 -540 Descending Boston Center
12:17PM 42.2050 -73.5864 335° Northwest 339 390 11,000 -180 Level Boston Center
12:18PM 42.2964 -73.6106 349° North 334 384 10,700 -1,440 Descending Boston Center
12:19PM 42.3917 -73.6769 333° Northwest 258 297 7,600 -2,280 Descending Boston Center
12:20PM 42.4453 -73.7231 328° Northwest 262 302 5,500 -2,340 Descending Boston Center
12:21PM 42.5011 -73.7692 329° Northwest 259 298 3,400 -2,340 Descending Boston Center